TOM36DW EGNT-LGSK
Flight info
| Callsign | TOM36DW |
|---|---|
| Flight time | N/A |
| Altitude | 37000 |
| Route | GIRLI P18 GASKO Y250 KEFTE UY250 MAMUL L603 DOLAS DCT NAVPI DCT NOLRU DCT DOJOH DCT DODEN DCT NEGIX DCT DINKU M867 XERUM DCT BAVAX DCT RADIZ DCT LUPIX DCT ZARVE DCT NEMEK DCT GACMO DCT AKIKA DCT ENFAR DCT TALAS UN130 TSL UL617 IBIDI |
| Aircraft | B38M/M-SDE1FGHILORVWXY/HB1 |
Departure
| Time | 2026-05-04 09:39 |
|---|---|
| Airport | Newcastle International Airport (EGNT) |
Arrival
| Time | N/A |
|---|---|
| Airport | Skiathos Island National Airport (LGSK) |
| Time | Latitude | Longitude | Altitude | Speed | Heading |
|---|---|---|---|---|---|
| 2026-05-04 09:05 | 55.03739 | -1.70760 | 270 ft | 0 kts | 184° |
| 2026-05-04 09:29 | 55.03740 | -1.70760 | 270 ft | 1 kts | 184° |
| 2026-05-04 09:29 | 55.03754 | -1.70758 | 297 ft | 3 kts | 184° |
| 2026-05-04 09:30 | 55.03774 | -1.70755 | 261 ft | 3 kts | 181° |
| 2026-05-04 09:30 | 55.03794 | -1.70757 | 270 ft | 3 kts | 164° |
| 2026-05-04 09:30 | 55.03808 | -1.70771 | 270 ft | 3 kts | 118° |
| 2026-05-04 09:30 | 55.03811 | -1.70788 | 270 ft | 2 kts | 94° |
| 2026-05-04 09:31 | 55.03812 | -1.70817 | 270 ft | 2 kts | 94° |
| 2026-05-04 09:31 | 55.03812 | -1.70824 | 270 ft | 1 kts | 94° |
| 2026-05-04 09:34 | 55.03812 | -1.70811 | 270 ft | 2 kts | 94° |
| 2026-05-04 09:34 | 55.03810 | -1.70770 | 270 ft | 6 kts | 94° |
| 2026-05-04 09:34 | 55.03805 | -1.70631 | 270 ft | 17 kts | 94° |
| 2026-05-04 09:35 | 55.03793 | -1.70466 | 270 ft | 12 kts | 118° |
| 2026-05-04 09:35 | 55.03719 | -1.70429 | 270 ft | 11 kts | 182° |
| 2026-05-04 09:35 | 55.03640 | -1.70442 | 270 ft | 11 kts | 190° |
| 2026-05-04 09:35 | 55.03594 | -1.70539 | 270 ft | 10 kts | 263° |
| 2026-05-04 09:37 | 55.03461 | -1.70645 | 270 ft | 1 kts | 181° |
| 2026-05-04 09:37 | 55.03445 | -1.70645 | 270 ft | 6 kts | 180° |
| 2026-05-04 09:38 | 55.03378 | -1.70625 | 270 ft | 8 kts | 152° |
| 2026-05-04 09:38 | 55.03364 | -1.70594 | 270 ft | 0 kts | 66° |
| 2026-05-04 09:38 | 55.03365 | -1.70590 | 270 ft | 2 kts | 66° |
| 2026-05-04 09:38 | 55.03472 | -1.70190 | 266 ft | 79 kts | 65° |
| 2026-05-04 09:39 | 55.03816 | -1.68893 | 254 ft | 154 kts | 65° |
| 2026-05-04 09:39 | 55.04332 | -1.66957 | 569 ft | 191 kts | 65° |
| 2026-05-04 09:39 | 55.04931 | -1.64709 | 1219 ft | 220 kts | 66° |
| 2026-05-04 09:39 | 55.05604 | -1.62129 | 2043 ft | 242 kts | 65° |
| 2026-05-04 09:40 | 55.06326 | -1.59425 | 3035 ft | 253 kts | 65° |
| 2026-05-04 09:40 | 55.06771 | -1.56395 | 3765 ft | 271 kts | 92° |
| 2026-05-04 09:40 | 55.06088 | -1.53395 | 4817 ft | 264 kts | 133° |
| 2026-05-04 09:40 | 55.04555 | -1.51686 | 5820 ft | 268 kts | 167° |
| 2026-05-04 09:41 | 55.02699 | -1.51760 | 6689 ft | 268 kts | 196° |
| 2026-05-04 09:42 | 54.90411 | -1.60543 | 8047 ft | 279 kts | 212° |
| 2026-05-04 09:43 | 54.88743 | -1.62273 | 8046 ft | 279 kts | 212° |
| 2026-05-04 09:43 | 54.87078 | -1.63992 | 8040 ft | 279 kts | 212° |
| 2026-05-04 09:43 | 54.85411 | -1.65707 | 8054 ft | 279 kts | 212° |
| 2026-05-04 09:43 | 54.83761 | -1.67401 | 8073 ft | 279 kts | 212° |
| 2026-05-04 09:44 | 54.82071 | -1.69134 | 8072 ft | 279 kts | 212° |
| 2026-05-04 09:44 | 54.80425 | -1.70820 | 8071 ft | 279 kts | 212° |
| 2026-05-04 09:44 | 54.78751 | -1.72532 | 8082 ft | 279 kts | 212° |
| 2026-05-04 09:46 | 54.66319 | -1.81784 | 10264 ft | 292 kts | 192° |
| 2026-05-04 09:46 | 54.64272 | -1.82460 | 10790 ft | 309 kts | 192° |
| 2026-05-04 09:46 | 54.62094 | -1.83165 | 11284 ft | 325 kts | 192° |
| 2026-05-04 09:47 | 54.59835 | -1.83888 | 11927 ft | 334 kts | 192° |
| 2026-05-04 09:47 | 54.57541 | -1.84615 | 12802 ft | 336 kts | 191° |
| 2026-05-04 09:49 | 54.40840 | -1.89866 | 17689 ft | 362 kts | 191° |
| 2026-05-04 09:49 | 54.38346 | -1.90647 | 18327 ft | 366 kts | 191° |
| 2026-05-04 09:49 | 54.35829 | -1.91433 | 18864 ft | 369 kts | 191° |
| 2026-05-04 09:51 | 54.20328 | -1.92978 | 21967 ft | 386 kts | 150° |
| 2026-05-04 09:51 | 54.17980 | -1.90696 | 22424 ft | 391 kts | 148° |
| 2026-05-04 09:51 | 54.15658 | -1.88374 | 22939 ft | 393 kts | 148° |
| 2026-05-04 09:51 | 54.13302 | -1.85977 | 23445 ft | 396 kts | 147° |
| 2026-05-04 09:52 | 54.10927 | -1.83536 | 23895 ft | 399 kts | 147° |
| 2026-05-04 09:52 | 54.08545 | -1.81075 | 24304 ft | 402 kts | 146° |
| 2026-05-04 09:52 | 54.06157 | -1.78603 | 24711 ft | 404 kts | 146° |
| 2026-05-04 09:52 | 54.03741 | -1.76103 | 25110 ft | 407 kts | 146° |
| 2026-05-04 09:53 | 54.01313 | -1.73593 | 25512 ft | 409 kts | 146° |
| 2026-05-04 09:53 | 53.98872 | -1.71072 | 25894 ft | 412 kts | 146° |
| 2026-05-04 09:53 | 53.96417 | -1.68540 | 26323 ft | 413 kts | 146° |
| 2026-05-04 09:53 | 53.93955 | -1.66003 | 26713 ft | 415 kts | 146° |
| 2026-05-04 09:54 | 53.91479 | -1.63456 | 27064 ft | 418 kts | 146° |
| 2026-05-04 09:54 | 53.88986 | -1.60895 | 27439 ft | 420 kts | 145° |
| 2026-05-04 09:54 | 53.86477 | -1.58322 | 27789 ft | 423 kts | 145° |
| 2026-05-04 09:54 | 53.83952 | -1.55735 | 28150 ft | 425 kts | 146° |
| 2026-05-04 09:55 | 53.81418 | -1.53143 | 28518 ft | 427 kts | 146° |
| 2026-05-04 09:55 | 53.78903 | -1.50575 | 28854 ft | 429 kts | 145° |
| 2026-05-04 09:55 | 53.76339 | -1.47960 | 29182 ft | 431 kts | 145° |
| 2026-05-04 09:55 | 53.73756 | -1.45328 | 29508 ft | 433 kts | 145° |
| 2026-05-04 09:56 | 53.71173 | -1.42702 | 29927 ft | 434 kts | 145° |
| 2026-05-04 09:56 | 53.68582 | -1.40071 | 30277 ft | 435 kts | 145° |
| 2026-05-04 09:56 | 53.65977 | -1.37432 | 30518 ft | 438 kts | 145° |
| 2026-05-04 09:56 | 53.63372 | -1.34796 | 30801 ft | 439 kts | 145° |
| 2026-05-04 09:57 | 53.60734 | -1.32158 | 31056 ft | 442 kts | 148° |
| 2026-05-04 09:57 | 53.57845 | -1.30308 | 31347 ft | 449 kts | 166° |
| 2026-05-04 09:57 | 53.54732 | -1.29689 | 31634 ft | 452 kts | 172° |
| 2026-05-04 09:57 | 53.51582 | -1.29243 | 31840 ft | 455 kts | 172° |
| 2026-05-04 09:58 | 53.48451 | -1.28534 | 32101 ft | 452 kts | 161° |
| 2026-05-04 09:58 | 53.45580 | -1.26490 | 32356 ft | 447 kts | 145° |
| 2026-05-04 09:58 | 53.43096 | -1.23372 | 32517 ft | 445 kts | 132° |
| 2026-05-04 10:00 | 53.34988 | -0.90698 | 34325 ft | 441 kts | 106° |
| 2026-05-04 10:00 | 53.34075 | -0.85789 | 34543 ft | 442 kts | 106° |
| 2026-05-04 10:02 | 53.27637 | -0.51396 | 36016 ft | 445 kts | 107° |
| 2026-05-04 10:04 | 53.21019 | -0.16673 | 37066 ft | 451 kts | 108° |
| 2026-05-04 10:04 | 53.19101 | -0.06725 | 37061 ft | 449 kts | 108° |
| 2026-05-04 10:05 | 53.17176 | 0.03204 | 37044 ft | 451 kts | 108° |
| 2026-05-04 10:05 | 53.15242 | 0.13128 | 37052 ft | 454 kts | 109° |
| 2026-05-04 10:06 | 53.13282 | 0.23133 | 37058 ft | 454 kts | 109° |
| 2026-05-04 10:06 | 53.11315 | 0.33122 | 37058 ft | 454 kts | 109° |
| 2026-05-04 10:08 | 53.04362 | 0.68025 | 37050 ft | 455 kts | 110° |
| 2026-05-04 10:08 | 53.02350 | 0.78010 | 37051 ft | 455 kts | 110° |
| 2026-05-04 10:09 | 53.00337 | 0.87945 | 37051 ft | 455 kts | 110° |
| 2026-05-04 10:09 | 52.98318 | 0.97880 | 37044 ft | 453 kts | 110° |
| 2026-05-04 10:10 | 52.96124 | 1.07616 | 37048 ft | 454 kts | 112° |
| 2026-05-04 10:10 | 52.93908 | 1.17416 | 37042 ft | 454 kts | 112° |
| 2026-05-04 10:11 | 52.91688 | 1.27209 | 37040 ft | 454 kts | 112° |
| 2026-05-04 10:11 | 52.89461 | 1.36988 | 37039 ft | 454 kts | 112° |
| 2026-05-04 10:12 | 52.87224 | 1.46766 | 37039 ft | 454 kts | 112° |
| 2026-05-04 10:12 | 52.84979 | 1.56533 | 37028 ft | 455 kts | 112° |
| 2026-05-04 10:13 | 52.82719 | 1.66316 | 37033 ft | 456 kts | 112° |
| 2026-05-04 10:13 | 52.80462 | 1.76046 | 37032 ft | 455 kts | 112° |
| 2026-05-04 10:14 | 52.78187 | 1.85812 | 37032 ft | 455 kts | 112° |
| 2026-05-04 10:16 | 52.68991 | 2.24828 | 37027 ft | 457 kts | 113° |
| 2026-05-04 10:16 | 52.66666 | 2.34582 | 37026 ft | 457 kts | 113° |
| 2026-05-04 10:17 | 52.64339 | 2.44304 | 37022 ft | 457 kts | 113° |
| 2026-05-04 10:19 | 52.55346 | 2.81480 | 37017 ft | 457 kts | 114° |
| 2026-05-04 10:19 | 52.52640 | 2.90906 | 37039 ft | 456 kts | 118° |
| 2026-05-04 10:20 | 52.49895 | 3.00299 | 37000 ft | 456 kts | 118° |
| 2026-05-04 10:20 | 52.47155 | 3.09701 | 37003 ft | 458 kts | 118° |
| 2026-05-04 10:21 | 52.44397 | 3.19139 | 37008 ft | 459 kts | 118° |
| 2026-05-04 10:21 | 52.41629 | 3.28574 | 37007 ft | 459 kts | 118° |
| 2026-05-04 10:22 | 52.37464 | 3.42698 | 37004 ft | 459 kts | 118° |
| 2026-05-04 10:23 | 52.34678 | 3.52100 | 36996 ft | 461 kts | 119° |
| 2026-05-04 10:25 | 52.23402 | 3.89782 | 37004 ft | 462 kts | 120° |
| 2026-05-04 10:25 | 52.20561 | 3.99185 | 36996 ft | 461 kts | 121° |
| 2026-05-04 10:26 | 52.17726 | 4.08528 | 36995 ft | 459 kts | 121° |
| 2026-05-04 10:26 | 52.14881 | 4.17868 | 36996 ft | 459 kts | 121° |
| 2026-05-04 10:27 | 52.12039 | 4.27164 | 36996 ft | 459 kts | 121° |
| 2026-05-04 10:27 | 52.09183 | 4.36470 | 36987 ft | 459 kts | 121° |
| 2026-05-04 10:28 | 52.06323 | 4.45755 | 36989 ft | 459 kts | 121° |
| 2026-05-04 10:28 | 52.03469 | 4.54980 | 36984 ft | 459 kts | 121° |
| 2026-05-04 10:29 | 52.00597 | 4.64232 | 36992 ft | 459 kts | 121° |
| 2026-05-04 10:29 | 51.97711 | 4.73494 | 36983 ft | 459 kts | 121° |
| 2026-05-04 10:30 | 51.94826 | 4.82715 | 36984 ft | 459 kts | 121° |
| 2026-05-04 10:30 | 51.91941 | 4.91901 | 36976 ft | 455 kts | 122° |
| 2026-05-04 10:31 | 51.89073 | 5.01001 | 36988 ft | 454 kts | 122° |
| 2026-05-04 10:32 | 51.78997 | 5.32706 | 36983 ft | 454 kts | 122° |
| 2026-05-04 10:33 | 51.76075 | 5.41825 | 36984 ft | 455 kts | 122° |
| 2026-05-04 10:33 | 51.73182 | 5.50817 | 36983 ft | 455 kts | 122° |
| 2026-05-04 10:34 | 51.70262 | 5.59863 | 36983 ft | 454 kts | 122° |
| 2026-05-04 10:34 | 51.67340 | 5.68883 | 36991 ft | 455 kts | 123° |
| 2026-05-04 10:35 | 51.64410 | 5.77893 | 36973 ft | 453 kts | 122° |
| 2026-05-04 10:35 | 51.61482 | 5.86863 | 36997 ft | 453 kts | 123° |
| 2026-05-04 10:36 | 51.58555 | 5.95804 | 36988 ft | 455 kts | 123° |
| 2026-05-04 10:36 | 51.55611 | 6.04770 | 36992 ft | 454 kts | 123° |
| 2026-05-04 10:37 | 51.52637 | 6.13797 | 36995 ft | 454 kts | 123° |
| 2026-05-04 10:37 | 51.49603 | 6.22581 | 36989 ft | 449 kts | 129° |
| 2026-05-04 10:39 | 51.37276 | 6.51693 | 36980 ft | 450 kts | 129° |
| 2026-05-04 10:40 | 51.33746 | 6.59966 | 36979 ft | 450 kts | 129° |
| 2026-05-04 10:40 | 51.30211 | 6.68222 | 36992 ft | 450 kts | 129° |
| 2026-05-04 10:41 | 51.26671 | 6.76465 | 36995 ft | 450 kts | 130° |
| 2026-05-04 10:41 | 51.23116 | 6.84717 | 36992 ft | 450 kts | 130° |
| 2026-05-04 10:42 | 51.19561 | 6.92940 | 36992 ft | 450 kts | 130° |
| 2026-05-04 10:42 | 51.16024 | 7.01100 | 36985 ft | 450 kts | 130° |
| 2026-05-04 10:43 | 51.12462 | 7.09289 | 36981 ft | 450 kts | 130° |
| 2026-05-04 10:45 | 50.98164 | 7.41905 | 36996 ft | 449 kts | 130° |
| 2026-05-04 10:45 | 50.94577 | 7.50030 | 36982 ft | 449 kts | 130° |
| 2026-05-04 10:46 | 50.90980 | 7.58141 | 36956 ft | 450 kts | 130° |
| 2026-05-04 10:46 | 50.87403 | 7.66194 | 36999 ft | 451 kts | 130° |
| 2026-05-04 10:47 | 50.83767 | 7.74242 | 36992 ft | 447 kts | 136° |
| 2026-05-04 10:47 | 50.79351 | 7.80977 | 36982 ft | 442 kts | 142° |
| 2026-05-04 10:49 | 50.61460 | 8.07509 | 36991 ft | 442 kts | 142° |
| 2026-05-04 10:50 | 50.57429 | 8.14908 | 36995 ft | 448 kts | 134° |
| 2026-05-04 10:52 | 50.41811 | 8.45436 | 36999 ft | 451 kts | 133° |
| 2026-05-04 10:52 | 50.38516 | 8.51845 | 36993 ft | 450 kts | 134° |